createdAt,value
2018-01-28T00:02:11.527Z,81.57
2018-01-28T00:04:40.842Z,81.38
2018-01-28T00:07:10.858Z,81.70
2018-01-28T00:09:40.310Z,81.86
2018-01-28T00:12:10.330Z,82.17
2018-01-28T00:14:40.482Z,82.16
2018-01-28T00:17:09.706Z,82.53
2018-01-28T00:19:39.444Z,82.62
2018-01-28T00:22:08.633Z,82.61
2018-01-28T00:24:38.644Z,82.89
2018-01-28T00:27:08.006Z,82.80
2018-01-28T00:29:37.225Z,82.91
2018-01-28T00:32:06.451Z,83.12
2018-01-28T00:34:35.650Z,83.00
2018-01-28T00:37:05.658Z,83.26
2018-01-28T00:39:35.642Z,83.46
2018-01-28T00:42:04.948Z,83.45
2018-01-28T00:44:34.151Z,83.61
2018-01-28T00:47:04.253Z,83.53
2018-01-28T00:49:34.302Z,83.59
2018-01-28T00:52:03.631Z,83.89
2018-01-28T00:54:32.849Z,83.94
2018-01-28T00:57:02.252Z,83.97
2018-01-28T00:59:31.530Z,83.94
2018-01-28T01:02:00.755Z,84.31
2018-01-28T01:04:30.004Z,84.44
2018-01-28T01:06:59.968Z,84.64
2018-01-28T01:09:29.181Z,84.95
2018-01-28T01:11:58.403Z,85.21
2018-01-28T01:14:27.684Z,85.29
2018-01-28T01:16:56.905Z,85.47
2018-01-28T01:19:26.896Z,85.76
2018-01-28T01:21:56.144Z,85.42
2018-01-28T01:24:25.394Z,85.45
2018-01-28T01:26:54.591Z,85.60
2018-01-28T01:29:23.859Z,86.11
2018-01-28T01:31:53.093Z,86.28
2018-01-28T01:34:22.411Z,86.57
2018-01-28T01:36:51.769Z,86.73
2018-01-28T01:39:20.954Z,87.21
2018-01-28T01:41:50.171Z,87.17
2018-01-28T01:44:19.438Z,86.78
2018-01-28T01:46:48.662Z,86.81
2018-01-28T01:49:35.455Z,87.19
2018-01-28T01:52:04.685Z,87.84
2018-01-28T01:54:33.954Z,88.54
2018-01-28T01:57:03.162Z,88.96
2018-01-28T01:59:32.351Z,89.30
2018-01-28T02:02:01.678Z,89.73
2018-01-28T02:04:31.769Z,89.82
2018-01-28T02:07:01.004Z,90.41
2018-01-28T02:09:30.217Z,90.88
2018-01-28T02:12:00.178Z,91.14
2018-01-28T02:14:29.446Z,91.32
2018-01-28T02:16:59.411Z,91.56
2018-01-28T02:19:28.642Z,91.58
2018-01-28T02:21:57.867Z,91.76
2018-01-28T02:24:27.082Z,91.93
2018-01-28T02:26:56.359Z,92.05
2018-01-28T02:29:26.348Z,92.06
2018-01-28T02:31:55.537Z,92.23
2018-01-28T02:34:24.759Z,92.19
2018-01-28T02:36:53.950Z,92.26
2018-01-28T02:39:23.280Z,92.29
2018-01-28T02:41:52.486Z,92.23
2018-01-28T02:44:21.714Z,92.47
2018-01-28T02:46:50.943Z,92.65
2018-01-28T02:49:20.908Z,92.66
2018-01-28T02:51:50.130Z,92.73
2018-01-28T02:54:19.358Z,92.85
2018-01-28T02:56:48.566Z,92.98
2018-01-28T02:59:17.769Z,92.96
2018-01-28T03:01:46.991Z,92.79
2018-01-28T03:04:16.282Z,92.95
2018-01-28T03:06:45.557Z,92.93
2018-01-28T03:09:14.870Z,92.97
2018-01-28T03:11:44.081Z,92.92
2018-01-28T03:14:14.088Z,93.04
2018-01-28T03:16:43.295Z,92.99
2018-01-28T03:19:12.498Z,92.91
2018-01-28T03:21:41.723Z,92.77
2018-01-28T03:24:10.950Z,92.66
2018-01-28T03:26:40.921Z,92.41
2018-01-28T03:29:10.162Z,92.50
2018-01-28T03:31:40.174Z,92.54
2018-01-28T03:34:09.459Z,92.50
2018-01-28T03:36:38.658Z,92.40
2018-01-28T03:39:07.861Z,92.39
2018-01-28T03:41:37.894Z,92.28
2018-01-28T03:44:07.182Z,92.15
2018-01-28T03:46:36.390Z,92.25
2018-01-28T03:49:05.839Z,92.48
2018-01-28T03:51:35.242Z,92.65
2018-01-28T03:54:04.442Z,92.67
2018-01-28T03:56:33.747Z,92.81
2018-01-28T03:59:02.951Z,92.79
2018-01-28T04:01:32.194Z,92.90
2018-01-28T04:04:01.406Z,93.10
2018-01-28T04:06:30.622Z,92.88
2018-01-28T04:08:59.843Z,92.95
2018-01-28T04:11:29.046Z,92.89
2018-01-28T04:13:58.280Z,92.87
2018-01-28T04:16:28.249Z,92.92
2018-01-28T04:18:57.467Z,92.78
2018-01-28T04:21:26.697Z,92.60
2018-01-28T04:23:55.903Z,92.49
2018-01-28T04:26:25.130Z,92.54
2018-01-28T04:28:54.378Z,92.62
2018-01-28T04:31:24.348Z,92.77
2018-01-28T04:33:53.619Z,92.76
2018-01-28T04:36:22.810Z,92.59
2018-01-28T04:38:52.054Z,92.67
2018-01-28T04:41:21.246Z,92.70
2018-01-28T04:43:50.470Z,92.75
2018-01-28T04:46:19.699Z,92.77
2018-01-28T04:48:49.650Z,92.95
2018-01-28T04:51:18.857Z,93.01
2018-01-28T04:53:48.060Z,92.91
2018-01-28T04:56:17.279Z,93.10
2018-01-28T04:58:46.467Z,93.38
2018-01-28T05:01:17.203Z,93.52
2018-01-28T05:03:46.398Z,93.71
2018-01-28T05:06:15.613Z,93.74
2018-01-28T05:08:45.587Z,93.62
2018-01-28T05:11:14.788Z,93.56
2018-01-28T05:13:44.078Z,93.49
2018-01-28T05:16:13.285Z,93.62
2018-01-28T05:18:42.503Z,93.71
2018-01-28T05:21:12.599Z,93.65
2018-01-28T05:23:42.013Z,93.87
2018-01-28T05:26:11.265Z,93.97
2018-01-28T05:28:40.558Z,93.75
2018-01-28T05:31:09.738Z,93.62
2018-01-28T05:33:39.783Z,93.43
2018-01-28T05:36:08.965Z,93.49
2018-01-28T05:38:38.232Z,93.69
2018-01-28T05:41:07.447Z,93.69
2018-01-28T05:43:38.174Z,93.62
2018-01-28T05:46:08.167Z,93.63
2018-01-28T05:48:37.430Z,93.57
2018-01-28T05:51:06.614Z,93.62
2018-01-28T05:53:35.846Z,93.54
2018-01-28T05:56:05.031Z,93.61
2018-01-28T05:58:34.216Z,93.36
2018-01-28T06:01:03.455Z,93.25
2018-01-28T06:03:34.212Z,93.39
2018-01-28T06:06:04.218Z,93.27
2018-01-28T06:08:34.194Z,93.23
2018-01-28T06:11:03.525Z,93.23
2018-01-28T06:13:32.671Z,93.39
2018-01-28T06:16:01.983Z,93.37
2018-01-28T06:18:31.277Z,93.53
2018-01-28T06:21:00.490Z,93.32
2018-01-28T06:23:29.701Z,93.32
2018-01-28T06:25:58.919Z,93.50
2018-01-28T06:28:28.136Z,93.53
2018-01-28T06:30:58.084Z,93.72
2018-01-28T06:33:27.307Z,93.77
2018-01-28T06:35:56.515Z,93.89
2018-01-28T06:38:25.729Z,93.94
2018-01-28T06:40:55.729Z,94.04
2018-01-28T06:43:24.956Z,93.94
2018-01-28T06:45:54.927Z,94.00
2018-01-28T06:48:24.167Z,94.07
2018-01-28T06:50:53.350Z,94.13
2018-01-28T06:53:23.379Z,94.23
2018-01-28T06:55:53.351Z,94.21
2018-01-28T06:58:22.596Z,94.15
2018-01-28T07:00:52.578Z,94.20
2018-01-28T07:03:21.806Z,94.28
2018-01-28T07:05:51.790Z,94.41
2018-01-28T07:08:21.024Z,94.51
2018-01-28T07:10:51.002Z,94.63
2018-01-28T07:13:20.238Z,94.73
2018-01-28T07:15:49.482Z,94.80
2018-01-28T07:18:18.736Z,94.87
2018-01-28T07:20:47.971Z,94.94
2018-01-28T07:23:17.178Z,94.89
2018-01-28T07:25:46.403Z,94.92
2018-01-28T07:28:15.614Z,95.06
2018-01-28T07:30:45.815Z,94.96
2018-01-28T07:33:15.107Z,94.74
2018-01-28T07:35:44.340Z,94.88
2018-01-28T07:38:14.315Z,94.93
2018-01-28T07:40:43.521Z,94.92
2018-01-28T07:43:12.730Z,94.96
2018-01-28T07:45:42.130Z,94.88
2018-01-28T07:48:11.534Z,94.72
2018-01-28T07:50:40.770Z,94.77
2018-01-28T07:53:09.979Z,94.69
2018-01-28T07:55:39.216Z,94.91
2018-01-28T07:58:08.414Z,94.87
2018-01-28T08:00:37.820Z,95.09
2018-01-28T08:03:07.078Z,95.14
2018-01-28T08:05:36.307Z,94.96
2018-01-28T08:08:05.538Z,94.96
2018-01-28T08:10:40.942Z,94.94
2018-01-28T08:13:25.889Z,95.12
2018-01-28T08:15:55.129Z,95.05
2018-01-28T08:18:24.389Z,95.13
2018-01-28T08:20:53.615Z,95.08
2018-01-28T08:23:23.642Z,95.00
2018-01-28T08:25:52.847Z,94.89
2018-01-28T08:28:24.190Z,94.76
2018-01-28T08:30:53.442Z,94.67
2018-01-28T08:33:22.637Z,94.46
2018-01-28T08:35:51.865Z,94.48
2018-01-28T08:38:21.095Z,94.49
2018-01-28T08:40:50.402Z,94.60
2018-01-28T08:43:20.508Z,94.63
2018-01-28T08:45:49.929Z,94.76
2018-01-28T08:48:19.248Z,94.88
2018-01-28T08:50:48.556Z,94.94
2018-01-28T08:53:17.786Z,94.78
2018-01-28T08:55:47.026Z,94.81
2018-01-28T08:58:17.003Z,94.75
2018-01-28T09:00:46.281Z,94.77
2018-01-28T09:03:15.513Z,94.63
2018-01-28T09:05:44.714Z,94.49
2018-01-28T09:08:14.703Z,94.50
2018-01-28T09:10:43.934Z,94.56
2018-01-28T09:13:14.055Z,94.46
2018-01-28T09:15:44.041Z,94.44
2018-01-28T09:18:13.269Z,94.22
2018-01-28T09:20:42.475Z,94.36
2018-01-28T09:23:12.463Z,94.47
2018-01-28T09:25:42.441Z,94.39
2018-01-28T09:28:11.704Z,94.40
2018-01-28T09:30:41.000Z,94.36
2018-01-28T09:33:10.999Z,94.28
2018-01-28T09:35:40.205Z,94.17
2018-01-28T09:38:10.240Z,94.03
2018-01-28T09:40:40.253Z,93.88
2018-01-28T09:43:09.572Z,93.80
2018-01-28T09:45:38.895Z,93.70
2018-01-28T09:48:08.122Z,93.71
2018-01-28T09:50:37.321Z,93.80
2018-01-28T09:53:07.330Z,93.83
2018-01-28T09:55:36.580Z,93.71
2018-01-28T09:58:05.772Z,93.70
2018-01-28T10:00:35.019Z,93.70
2018-01-28T10:03:04.263Z,93.67
2018-01-28T10:05:34.366Z,93.36
2018-01-28T10:08:03.602Z,93.28
2018-01-28T10:10:32.848Z,93.24
2018-01-28T10:13:02.054Z,93.14
2018-01-28T10:15:31.295Z,93.00
2018-01-28T10:18:00.536Z,93.19
2018-01-28T10:20:29.760Z,93.34
2018-01-28T10:22:58.986Z,93.36
2018-01-28T10:25:28.235Z,93.34
2018-01-28T10:27:57.459Z,93.33
2018-01-28T10:30:26.696Z,93.45
2018-01-28T10:32:55.928Z,93.45
2018-01-28T10:35:25.233Z,93.25
2018-01-28T10:37:54.434Z,93.23
2018-01-28T10:40:23.676Z,93.10
2018-01-28T10:42:52.901Z,93.05
2018-01-28T10:45:22.167Z,93.02
2018-01-28T10:47:51.386Z,92.89
2018-01-28T10:50:20.935Z,92.68
2018-01-28T10:52:50.923Z,92.38
2018-01-28T10:55:20.270Z,92.40
2018-01-28T10:57:49.855Z,92.38
2018-01-28T11:00:19.083Z,92.00
2018-01-28T11:02:48.377Z,91.99
2018-01-28T11:05:17.651Z,91.45
2018-01-28T11:07:46.896Z,91.39
2018-01-28T11:10:16.143Z,91.32
2018-01-28T11:12:45.399Z,90.80
2018-01-28T11:15:14.639Z,90.66
2018-01-28T11:17:43.976Z,90.55
2018-01-28T11:20:13.453Z,89.85
2018-01-28T11:22:43.519Z,89.50
2018-01-28T11:25:13.484Z,89.40
2018-01-28T11:27:43.477Z,88.25
2018-01-28T11:30:12.685Z,88.44
2018-01-28T11:32:42.714Z,87.43
2018-01-28T11:35:12.758Z,86.96
2018-01-28T11:37:41.982Z,87.40
2018-01-28T11:40:11.187Z,86.72
2018-01-28T11:42:40.439Z,86.20
2018-01-28T11:45:09.653Z,85.71
2018-01-28T11:47:38.943Z,85.93
2018-01-28T11:50:08.330Z,85.93
2018-01-28T11:52:37.622Z,85.53
2018-01-28T11:55:09.068Z,85.76
2018-01-28T11:57:38.378Z,86.04
2018-01-28T12:00:08.056Z,85.65
2018-01-28T12:02:37.281Z,84.95
2018-01-28T12:05:06.605Z,85.37
2018-01-28T12:07:36.562Z,84.79
2018-01-28T12:10:05.780Z,85.02
2018-01-28T12:12:35.850Z,85.25
2018-01-28T12:15:05.117Z,85.25
2018-01-28T12:17:34.389Z,85.28
2018-01-28T12:20:03.631Z,85.10
2018-01-28T12:22:33.064Z,84.52
2018-01-28T12:25:03.810Z,84.28
2018-01-28T12:27:33.030Z,84.60
2018-01-28T12:30:03.330Z,84.52
2018-01-28T12:32:34.104Z,83.92
2018-01-28T12:35:03.319Z,83.59
2018-01-28T12:37:32.554Z,83.28
2018-01-28T12:40:01.818Z,83.50
2018-01-28T12:42:31.026Z,83.58
2018-01-28T12:45:00.260Z,83.37
2018-01-28T12:47:29.478Z,82.57
2018-01-28T12:50:00.445Z,82.39
2018-01-28T12:52:29.819Z,82.67
2018-01-28T12:54:59.816Z,82.68
2018-01-28T12:57:29.079Z,82.38
2018-01-28T12:59:59.185Z,82.02
2018-01-28T13:02:29.538Z,82.00
2018-01-28T13:04:58.758Z,82.33
2018-01-28T13:07:28.213Z,81.54
2018-01-28T13:09:57.445Z,81.93
2018-01-28T13:12:26.688Z,82.07
2018-01-28T13:14:56.839Z,82.21
2018-01-28T13:17:26.124Z,82.07
2018-01-28T13:19:55.359Z,81.95
2018-01-28T13:22:24.659Z,81.47
2018-01-28T13:24:55.909Z,81.30
2018-01-28T13:27:25.127Z,81.66
2018-01-28T13:29:54.422Z,81.87
2018-01-28T13:32:24.431Z,81.34
2018-01-28T13:34:53.654Z,81.24
2018-01-28T13:37:22.892Z,80.84
2018-01-28T13:39:52.178Z,80.58
2018-01-28T13:42:21.413Z,80.82
2018-01-28T13:44:50.828Z,81.38
2018-01-28T13:47:20.041Z,81.13
2018-01-28T13:49:49.450Z,80.64
2018-01-28T13:52:18.662Z,80.62
2018-01-28T13:54:47.958Z,80.65
2018-01-28T13:57:17.211Z,80.68
2018-01-28T13:59:48.093Z,80.40
2018-01-28T14:02:17.361Z,80.67
2018-01-28T14:04:46.574Z,80.39
2018-01-28T14:07:15.947Z,80.77
2018-01-28T14:09:45.163Z,80.25
2018-01-28T14:12:15.188Z,80.09
2018-01-28T14:14:45.227Z,80.32
2018-01-28T14:17:14.500Z,79.73
2018-01-28T14:19:43.735Z,80.26
2018-01-28T14:22:12.953Z,80.09
2018-01-28T14:24:42.250Z,79.84
2018-01-28T14:27:11.461Z,79.80
2018-01-28T14:29:40.747Z,79.54
2018-01-28T14:32:09.997Z,79.44
2018-01-28T14:34:40.023Z,79.39
2018-01-28T14:37:09.902Z,79.75
2018-01-28T14:39:39.939Z,79.91
2018-01-28T14:42:09.929Z,79.86
2018-01-28T14:44:39.171Z,80.21
2018-01-28T14:47:08.414Z,80.50
2018-01-28T14:49:37.685Z,80.36
2018-01-28T14:52:06.945Z,80.40
2018-01-28T14:54:36.184Z,80.68
2018-01-28T14:57:05.565Z,80.62
2018-01-28T14:59:34.782Z,80.58
2018-01-28T15:02:04.008Z,80.82
2018-01-28T15:04:33.211Z,81.07
2018-01-28T15:07:02.459Z,81.03
2018-01-28T15:09:31.686Z,81.28
2018-01-28T15:12:00.940Z,81.57
2018-01-28T15:14:30.133Z,81.48
2018-01-28T15:17:00.193Z,81.60
2018-01-28T15:19:29.467Z,81.56
2018-01-28T15:21:58.733Z,81.86
2018-01-28T15:24:28.827Z,81.85
2018-01-28T15:26:58.565Z,81.78
2018-01-28T15:29:27.807Z,81.74
2018-01-28T15:31:57.053Z,81.77
2018-01-28T15:34:26.306Z,81.64
2018-01-28T15:36:55.527Z,81.64
2018-01-28T15:39:24.780Z,81.57
2018-01-28T15:41:54.005Z,81.43
2018-01-28T15:44:23.267Z,81.47
2018-01-28T15:46:52.490Z,81.38
2018-01-28T15:49:21.759Z,81.28
2018-01-28T15:51:51.785Z,81.29
2018-01-28T15:54:21.768Z,81.42
2018-01-28T15:56:51.003Z,81.29
2018-01-28T15:59:20.245Z,81.33
2018-01-28T16:01:49.540Z,81.24
2018-01-28T16:04:18.977Z,81.48
2018-01-28T16:06:48.188Z,81.42
2018-01-28T16:09:18.269Z,81.50
2018-01-28T16:11:47.558Z,81.79
2018-01-28T16:14:16.932Z,81.90
2018-01-28T16:16:46.473Z,81.80
2018-01-28T16:19:15.704Z,81.83
2018-01-28T16:21:45.995Z,81.95
2018-01-28T16:24:15.224Z,81.82
2018-01-28T16:26:45.259Z,82.13
2018-01-28T16:29:14.459Z,82.27
2018-01-28T16:31:43.708Z,82.18
2018-01-28T16:34:13.835Z,82.47
2018-01-28T16:36:43.063Z,82.29
2018-01-28T16:39:12.290Z,82.46
2018-01-28T16:41:41.564Z,82.46
2018-01-28T16:44:11.614Z,82.59
2018-01-28T16:46:40.843Z,82.67
2018-01-28T16:49:11.614Z,82.67
2018-01-28T16:51:40.981Z,82.70
2018-01-28T16:54:10.223Z,83.05
2018-01-28T16:56:39.454Z,83.17
2018-01-28T16:59:08.720Z,83.19
2018-01-28T17:01:38.007Z,83.41
2018-01-28T17:04:07.286Z,83.34
2018-01-28T17:06:37.288Z,83.31
2018-01-28T17:09:07.283Z,83.44
2018-01-28T17:11:36.709Z,83.52
2018-01-28T17:14:06.920Z,83.86
2018-01-28T17:16:36.181Z,84.04
2018-01-28T17:19:05.443Z,84.31
2018-01-28T17:21:35.436Z,84.67
2018-01-28T17:24:04.676Z,85.09
2018-01-28T17:26:34.667Z,85.33
2018-01-28T17:29:03.898Z,85.71
2018-01-28T17:31:33.186Z,85.88
2018-01-28T17:34:02.483Z,86.10
2018-01-28T17:36:31.736Z,86.13
2018-01-28T17:39:01.007Z,86.72
2018-01-28T17:41:30.486Z,87.03
2018-01-28T17:44:00.470Z,87.37
2018-01-28T17:46:29.729Z,87.67
2018-01-28T17:48:58.938Z,87.90
2018-01-28T17:51:29.154Z,88.18
2018-01-28T17:53:58.425Z,88.29
2018-01-28T17:56:27.669Z,88.50
2018-01-28T17:58:56.887Z,88.56
2018-01-28T18:01:26.922Z,88.69
2018-01-28T18:03:56.946Z,88.72
2018-01-28T18:06:26.306Z,88.97
2018-01-28T18:08:55.543Z,88.96
2018-01-28T18:11:25.602Z,88.86
2018-01-28T18:13:54.947Z,88.86
2018-01-28T18:16:24.184Z,88.99
2018-01-28T18:18:53.655Z,89.14
2018-01-28T18:21:23.702Z,89.09
2018-01-28T18:23:53.672Z,88.97
2018-01-28T18:26:23.037Z,89.06
2018-01-28T18:28:52.348Z,89.06
2018-01-28T18:31:21.622Z,88.86
2018-01-28T18:33:51.099Z,88.92
2018-01-28T18:36:20.550Z,88.76
2018-01-28T18:38:49.854Z,88.82
2018-01-28T18:41:19.037Z,88.70
2018-01-28T18:43:48.299Z,88.73
2018-01-28T18:46:19.015Z,88.70
2018-01-28T18:48:49.065Z,88.67
2018-01-28T18:51:19.047Z,88.62
2018-01-28T18:53:48.322Z,88.55
2018-01-28T18:56:17.619Z,88.62
2018-01-28T18:58:47.657Z,88.61
2018-01-28T19:01:17.708Z,88.82
2018-01-28T19:03:47.092Z,88.84
2018-01-28T19:06:16.327Z,89.01
2018-01-28T19:08:45.602Z,89.11
2018-01-28T19:11:14.880Z,89.10
2018-01-28T19:13:44.247Z,89.27
2018-01-28T19:16:13.500Z,89.35
2018-01-28T19:18:42.805Z,89.32
2018-01-28T19:21:12.074Z,89.21
2018-01-28T19:23:41.296Z,89.57
2018-01-28T19:26:10.571Z,89.63
2018-01-28T19:28:39.847Z,89.59
2018-01-28T19:31:09.071Z,89.68
2018-01-28T19:33:39.061Z,89.75
2018-01-28T19:36:08.311Z,89.94
2018-01-28T19:38:38.341Z,90.15
2018-01-28T19:41:07.575Z,90.11
2018-01-28T19:43:36.816Z,90.12
2018-01-28T19:46:06.081Z,90.20
2018-01-28T19:48:35.310Z,90.36
2018-01-28T19:51:04.618Z,90.33
2018-01-28T19:53:34.730Z,90.34
2018-01-28T19:56:04.727Z,90.34
2018-01-28T19:58:34.134Z,90.25
2018-01-28T20:01:04.260Z,90.26
2018-01-28T20:03:33.492Z,90.15
2018-01-28T20:06:02.790Z,90.23
2018-01-28T20:08:32.082Z,90.12
2018-01-28T20:11:01.403Z,89.99
2018-01-28T20:13:30.649Z,89.76
2018-01-28T20:15:59.858Z,89.73
2018-01-28T20:18:29.127Z,89.47
2018-01-28T20:20:58.454Z,89.22
2018-01-28T20:23:28.722Z,89.16
2018-01-28T20:25:57.995Z,89.11
2018-01-28T20:28:27.297Z,89.16
2018-01-28T20:30:56.672Z,89.02
2018-01-28T20:33:26.726Z,89.07
2018-01-28T20:35:55.939Z,88.87
2018-01-28T20:38:25.226Z,88.82
2018-01-28T20:40:54.482Z,88.79
2018-01-28T20:43:24.515Z,88.71
2018-01-28T20:45:54.515Z,88.80
2018-01-28T20:48:24.530Z,88.67
2018-01-28T20:50:53.828Z,88.65
2018-01-28T20:53:24.570Z,88.72
2018-01-28T20:55:53.887Z,88.65
2018-01-28T20:58:23.147Z,88.68
2018-01-28T21:00:53.181Z,88.80
2018-01-28T21:03:23.185Z,88.93
2018-01-28T21:05:52.426Z,88.79
2018-01-28T21:08:21.666Z,88.64
2018-01-28T21:10:50.941Z,88.71
2018-01-28T21:13:20.180Z,88.66
2018-01-28T21:15:50.209Z,88.53
2018-01-28T21:18:20.209Z,88.36
2018-01-28T21:20:50.272Z,88.33
2018-01-28T21:23:19.549Z,88.21
2018-01-28T21:25:48.802Z,88.12
2018-01-28T21:28:18.030Z,87.99
2018-01-28T21:30:47.298Z,88.04
2018-01-28T21:33:16.563Z,88.31
2018-01-28T21:35:45.815Z,88.23
2018-01-28T21:38:15.123Z,88.21
2018-01-28T21:40:45.138Z,88.13
2018-01-28T21:43:15.170Z,87.97
2018-01-28T21:45:45.209Z,87.96
2018-01-28T21:48:14.518Z,87.84
2018-01-28T21:50:43.776Z,87.74
2018-01-28T21:53:13.796Z,87.57
2018-01-28T21:55:43.847Z,87.70
2018-01-28T21:58:13.110Z,87.64
2018-01-28T22:00:42.465Z,87.66
2018-01-28T22:03:11.707Z,87.41
2018-01-28T22:05:41.708Z,87.53
2018-01-28T22:08:10.971Z,87.51
2018-01-28T22:10:40.293Z,87.48
2018-01-28T22:13:09.550Z,87.44
2018-01-28T22:15:38.781Z,87.49
2018-01-28T22:18:08.088Z,87.52
2018-01-28T22:20:38.905Z,87.57
2018-01-28T22:23:08.128Z,87.43
2018-01-28T22:25:37.518Z,87.47
2018-01-28T22:28:06.817Z,87.52
2018-01-28T22:30:36.070Z,87.53
2018-01-28T22:33:05.320Z,87.62
2018-01-28T22:35:34.556Z,87.66
2018-01-28T22:38:03.842Z,87.59
2018-01-28T22:40:33.845Z,87.51
2018-01-28T22:43:03.925Z,87.59
2018-01-28T22:45:33.173Z,87.75
2018-01-28T22:48:02.410Z,87.75
2018-01-28T22:50:32.088Z,87.72
2018-01-28T22:53:02.084Z,87.72
2018-01-28T22:55:31.332Z,87.80
2018-01-28T22:58:00.550Z,87.79
2018-01-28T23:00:29.771Z,87.94
2018-01-28T23:02:59.002Z,87.97
2018-01-28T23:05:28.224Z,88.01
2018-01-28T23:07:57.451Z,88.14
2018-01-28T23:10:26.689Z,88.07
2018-01-28T23:12:56.683Z,88.08
2018-01-28T23:15:25.950Z,88.11
2018-01-28T23:17:55.217Z,88.08
2018-01-28T23:20:24.508Z,88.10
2018-01-28T23:22:53.715Z,88.11
2018-01-28T23:25:22.965Z,88.26
2018-01-28T23:27:52.180Z,88.40
2018-01-28T23:30:21.457Z,88.46
2018-01-28T23:32:50.746Z,88.52
2018-01-28T23:35:20.089Z,88.64
2018-01-28T23:37:50.115Z,88.71
2018-01-28T23:40:20.159Z,88.58
2018-01-28T23:42:49.499Z,88.49
2018-01-28T23:45:18.748Z,88.38
2018-01-28T23:47:48.720Z,88.53
2018-01-28T23:50:17.976Z,88.54
2018-01-28T23:52:47.235Z,88.46
2018-01-28T23:55:16.495Z,88.33
2018-01-28T23:57:45.754Z,88.09
